createdAt,value
2022-11-05T00:01:03.279Z,95624.34
2022-11-05T00:03:48.522Z,95625.66
2022-11-05T00:06:34.017Z,95636.84
2022-11-05T00:09:19.289Z,95629.78
2022-11-05T00:12:04.781Z,95623.75
2022-11-05T00:14:49.881Z,95622.34
2022-11-05T00:17:16.451Z,95616.88
2022-11-05T00:19:43.049Z,95613.13
2022-11-05T00:22:28.132Z,95612.63
2022-11-05T00:25:13.217Z,95618.09
2022-11-05T00:27:40.800Z,95623.53
2022-11-05T00:30:09.261Z,95618.09
2022-11-05T00:32:35.857Z,95614.03
2022-11-05T00:35:02.495Z,95620.28
2022-11-05T00:37:29.175Z,95627.16
2022-11-05T00:39:55.800Z,95621.41
2022-11-05T00:42:41.225Z,95629.78
2022-11-05T00:45:08.214Z,95638.56
2022-11-05T00:48:01.029Z,95631.19
2022-11-05T00:50:28.206Z,95635.09
2022-11-05T00:52:56.996Z,95641.56
2022-11-05T00:55:43.976Z,95645.63
2022-11-05T00:58:20.143Z,95649.66
2022-11-05T01:01:12.899Z,95653.56
2022-11-05T01:03:40.159Z,95661.75
2022-11-05T01:06:15.829Z,95658.00
2022-11-05T01:08:44.470Z,95671.63
2022-11-05T01:11:37.272Z,95666.19
2022-11-05T01:14:10.365Z,95669.94
2022-11-05T01:16:38.229Z,95669.63
2022-11-05T01:19:06.743Z,95671.03
2022-11-05T01:21:33.826Z,95674.25
2022-11-05T01:24:00.923Z,95676.69
2022-11-05T01:26:27.599Z,95675.06
2022-11-05T01:28:55.746Z,95685.97
2022-11-05T01:31:23.673Z,95687.88
2022-11-05T01:33:50.922Z,95696.34
2022-11-05T01:36:17.844Z,95702.91
2022-11-05T01:38:44.556Z,95699.06
2022-11-05T01:41:11.519Z,95711.38
2022-11-05T01:43:54.629Z,95717.94
2022-11-05T01:46:33.521Z,95709.16
2022-11-05T01:49:31.951Z,95712.78
2022-11-05T01:52:01.658Z,95729.94
2022-11-05T01:54:31.471Z,95728.22
2022-11-05T01:57:07.345Z,95728.22
2022-11-05T01:59:43.272Z,95729.63
2022-11-05T02:02:10.542Z,95733.75
2022-11-05T02:05:07.681Z,95740.00
2022-11-05T02:07:34.511Z,95743.53
2022-11-05T02:10:09.418Z,95746.78
2022-11-05T02:12:39.698Z,95750.84
2022-11-05T02:15:07.035Z,95738.03
2022-11-05T02:17:42.660Z,95751.66
2022-11-05T02:20:18.254Z,95754.72
2022-11-05T02:23:27.202Z,95755.69
2022-11-05T02:26:21.245Z,95753.03
2022-11-05T02:28:56.958Z,95764.75
2022-11-05T02:31:40.447Z,95756.84
2022-11-05T02:34:27.983Z,95756.56
2022-11-05T02:37:16.450Z,95756.63
2022-11-05T02:40:07.906Z,95754.69
2022-11-05T02:42:53.149Z,95748.44
2022-11-05T02:45:34.296Z,95749.84
2022-11-05T02:48:31.470Z,95744.47
2022-11-05T02:51:04.235Z,95754.31
2022-11-05T02:53:46.039Z,95752.94
2022-11-05T02:56:25.723Z,95747.78
2022-11-05T02:58:52.318Z,95754.69
2022-11-05T03:01:19.160Z,95757.03
2022-11-05T03:03:48.550Z,95764.41
2022-11-05T03:06:40.846Z,95765.22
2022-11-05T03:09:13.765Z,95762.19
2022-11-05T03:12:05.102Z,95755.19
2022-11-05T03:14:45.295Z,95754.09
2022-11-05T03:17:23.937Z,95758.72
2022-11-05T03:20:15.712Z,95766.66
2022-11-05T03:22:54.473Z,95767.78
2022-11-05T03:25:24.790Z,95764.53
2022-11-05T03:27:56.229Z,95766.16
2022-11-05T03:30:25.064Z,95768.59
2022-11-05T03:32:57.228Z,95764.53
2022-11-05T03:35:28.781Z,95771.38
2022-11-05T03:38:02.807Z,95769.53
2022-11-05T03:40:33.682Z,95773.06
2022-11-05T03:43:04.366Z,95768.47
2022-11-05T03:45:41.218Z,95776.34
2022-11-05T03:48:11.783Z,95771.50
2022-11-05T03:50:45.869Z,95772.06
2022-11-05T03:53:20.903Z,95785.16
2022-11-05T03:56:13.690Z,95777.59
2022-11-05T03:58:45.625Z,95781.41
2022-11-05T04:01:12.647Z,95788.75
2022-11-05T04:03:39.210Z,95783.09
2022-11-05T04:06:26.403Z,95784.53
2022-11-05T04:09:11.707Z,95780.19
2022-11-05T04:11:57.196Z,95782.63
2022-11-05T04:14:23.855Z,95797.91
2022-11-05T04:17:08.787Z,95798.75
2022-11-05T04:20:11.914Z,95787.13
2022-11-05T04:22:57.185Z,95788.81
2022-11-05T04:25:23.789Z,95791.69
2022-11-05T04:27:51.374Z,95792.59
2022-11-05T04:30:19.415Z,95799.41
2022-11-05T04:33:04.333Z,95796.22
2022-11-05T04:35:37.660Z,95802.28
2022-11-05T04:38:06.261Z,95811.59
2022-11-05T04:40:32.879Z,95798.63
2022-11-05T04:42:59.900Z,95790.75
2022-11-05T04:45:29.965Z,95805.22
2022-11-05T04:47:56.570Z,95803.59
2022-11-05T04:50:23.522Z,95809.56
2022-11-05T04:52:50.191Z,95807.38
2022-11-05T04:55:16.922Z,95797.63
2022-11-05T04:57:44.090Z,95797.94
2022-11-05T05:00:11.244Z,95806.38
2022-11-05T05:02:37.912Z,95797.09
2022-11-05T05:05:05.329Z,95798.66
2022-11-05T05:07:33.515Z,95797.88
2022-11-05T05:10:01.384Z,95804.09
2022-11-05T05:12:28.589Z,95813.31
2022-11-05T05:14:55.264Z,95808.34
2022-11-05T05:17:22.052Z,95801.22
2022-11-05T05:20:07.397Z,95812.97
2022-11-05T05:22:34.253Z,95810.31
2022-11-05T05:25:00.823Z,95812.22
2022-11-05T05:27:32.034Z,95814.94
2022-11-05T05:29:59.530Z,95815.53
2022-11-05T05:32:27.092Z,95818.53
2022-11-05T05:34:53.782Z,95825.88
2022-11-05T05:37:20.614Z,95816.66
2022-11-05T05:39:48.141Z,95822.84
2022-11-05T05:42:15.054Z,95820.53
2022-11-05T05:44:42.892Z,95825.41
2022-11-05T05:47:09.558Z,95828.41
2022-11-05T05:49:36.146Z,95836.66
2022-11-05T05:52:02.815Z,95817.66
2022-11-05T05:54:33.468Z,95830.41
2022-11-05T05:57:01.997Z,95831.75
2022-11-05T05:59:28.574Z,95827.94
2022-11-05T06:01:55.339Z,95824.66
2022-11-05T06:04:22.092Z,95847.22
2022-11-05T06:06:48.649Z,95840.19
2022-11-05T06:09:15.940Z,95842.69
2022-11-05T06:11:42.740Z,95842.75
2022-11-05T06:14:11.931Z,95851.75
2022-11-05T06:16:39.990Z,95847.44
2022-11-05T06:19:07.746Z,95854.25
2022-11-05T06:21:34.682Z,95865.09
2022-11-05T06:24:04.747Z,95867.28
2022-11-05T06:26:31.629Z,95861.03
2022-11-05T06:28:58.261Z,95865.41
2022-11-05T06:31:25.256Z,95873.31
2022-11-05T06:33:51.989Z,95881.75
2022-11-05T06:36:19.735Z,95880.38
2022-11-05T06:38:46.805Z,95877.34
2022-11-05T06:41:13.681Z,95878.72
2022-11-05T06:43:40.787Z,95883.84
2022-11-05T06:46:07.847Z,95886.59
2022-11-05T06:48:34.584Z,95897.25
2022-11-05T06:51:01.574Z,95902.72
2022-11-05T06:53:28.670Z,95904.91
2022-11-05T06:55:55.392Z,95904.41
2022-11-05T06:58:22.347Z,95904.16
2022-11-05T07:00:49.974Z,95903.31
2022-11-05T07:03:16.902Z,95898.16
2022-11-05T07:05:49.125Z,95907.38
2022-11-05T07:08:16.138Z,95903.03
2022-11-05T07:10:42.819Z,95911.44
2022-11-05T07:13:09.641Z,95912.53
2022-11-05T07:15:36.765Z,95914.97
2022-11-05T07:18:04.291Z,95917.69
2022-11-05T07:20:34.221Z,95915.53
2022-11-05T07:23:13.364Z,95934.25
2022-11-05T07:25:41.798Z,95929.34
2022-11-05T07:28:09.182Z,95928.53
2022-11-05T07:30:36.328Z,95927.19
2022-11-05T07:33:03.728Z,95932.34
2022-11-05T07:35:30.438Z,95942.66
2022-11-05T07:37:57.382Z,95943.72
2022-11-05T07:40:26.343Z,95949.69
2022-11-05T07:42:55.742Z,95943.44
2022-11-05T07:45:22.674Z,95947.25
2022-11-05T07:47:57.610Z,95952.41
2022-11-05T07:50:27.947Z,95949.66
2022-11-05T07:53:00.147Z,95957.78
2022-11-05T07:55:26.824Z,95956.16
2022-11-05T07:57:53.397Z,95958.63
2022-11-05T08:00:22.559Z,95961.59
2022-11-05T08:03:09.784Z,95962.91
2022-11-05T08:05:39.270Z,95973.00
2022-11-05T08:08:08.049Z,95971.34
2022-11-05T08:10:35.598Z,95976.53
2022-11-05T08:13:02.500Z,95976.53
2022-11-05T08:15:29.259Z,95973.25
2022-11-05T08:18:11.855Z,95975.69
2022-11-05T08:20:38.897Z,95972.44
2022-11-05T08:23:05.477Z,95975.94
2022-11-05T08:25:32.290Z,95972.63
2022-11-05T08:28:07.803Z,95967.75
2022-11-05T08:30:35.122Z,95983.75
2022-11-05T08:33:05.432Z,95988.69
2022-11-05T08:35:33.545Z,95986.78
2022-11-05T08:38:02.862Z,95994.13
2022-11-05T08:40:31.700Z,95984.06
2022-11-05T08:42:59.084Z,95979.41
2022-11-05T08:45:26.609Z,95988.91
2022-11-05T08:48:03.305Z,95997.81
2022-11-05T08:50:30.015Z,95994.03
2022-11-05T08:52:56.962Z,95996.97
2022-11-05T08:55:23.659Z,96003.44
2022-11-05T08:57:56.349Z,96000.66
2022-11-05T09:00:23.340Z,96002.25
2022-11-05T09:02:49.992Z,96009.97
2022-11-05T09:05:16.820Z,96011.88
2022-11-05T09:07:43.385Z,96013.56
2022-11-05T09:10:10.564Z,96019.31
2022-11-05T09:12:37.153Z,96013.66
2022-11-05T09:15:03.942Z,96016.94
2022-11-05T09:17:30.675Z,96013.13
2022-11-05T09:19:57.308Z,96003.88
2022-11-05T09:22:23.862Z,96012.75
2022-11-05T09:24:50.440Z,96012.44
2022-11-05T09:27:17.101Z,96009.88
2022-11-05T09:29:43.697Z,96008.25
2022-11-05T09:32:10.467Z,96014.97
2022-11-05T09:34:37.051Z,96014.31
2022-11-05T09:37:04.137Z,96018.06
2022-11-05T09:39:30.788Z,96009.72
2022-11-05T09:42:02.759Z,96017.31
2022-11-05T09:44:51.018Z,96023.09
2022-11-05T09:47:25.846Z,96018.69
2022-11-05T09:49:54.817Z,96026.75
2022-11-05T09:52:27.422Z,96016.34
2022-11-05T09:54:55.612Z,96032.09
2022-11-05T09:57:28.528Z,96030.47
2022-11-05T10:00:05.966Z,96035.88
2022-11-05T10:02:35.472Z,96033.44
2022-11-05T10:05:10.363Z,96030.34
2022-11-05T10:07:47.612Z,96031.97
2022-11-05T10:10:45.210Z,96039.28
2022-11-05T10:13:22.002Z,96037.44
2022-11-05T10:15:58.222Z,96046.06
2022-11-05T10:18:34.880Z,96050.34
2022-11-05T10:21:01.578Z,96056.72
2022-11-05T10:23:28.441Z,96057.03
2022-11-05T10:26:00.158Z,96051.94
2022-11-05T10:28:31.015Z,96049.97
2022-11-05T10:31:12.182Z,96057.03
2022-11-05T10:34:01.736Z,96056.66
2022-11-05T10:36:33.046Z,96049.34
2022-11-05T10:39:11.898Z,96055.53
2022-11-05T10:41:50.006Z,96061.69
2022-11-05T10:44:33.198Z,96064.81
2022-11-05T10:47:08.509Z,96073.47
2022-11-05T10:50:00.372Z,96070.50
2022-11-05T10:52:35.785Z,96070.97
2022-11-05T10:55:07.255Z,96065.38
2022-11-05T10:57:39.518Z,96076.03
2022-11-05T11:00:23.946Z,96063.22
2022-11-05T11:02:56.439Z,96064.78
2022-11-05T11:05:29.019Z,96064.44
2022-11-05T11:08:18.230Z,96053.00
2022-11-05T11:10:54.669Z,96059.59
2022-11-05T11:13:47.866Z,96056.31
2022-11-05T11:16:17.014Z,96063.09
2022-11-05T11:18:43.964Z,96066.28
2022-11-05T11:21:16.682Z,96060.44
2022-11-05T11:23:53.033Z,96049.91
2022-11-05T11:26:21.799Z,96044.72
2022-11-05T11:29:10.715Z,96049.94
2022-11-05T11:31:39.608Z,96057.03
2022-11-05T11:34:28.074Z,96056.22
2022-11-05T11:37:00.171Z,96053.66
2022-11-05T11:39:30.462Z,96048.50
2022-11-05T11:42:00.469Z,96053.84
2022-11-05T11:44:33.695Z,96049.13
2022-11-05T11:47:13.803Z,96046.69
2022-11-05T11:49:50.824Z,96051.63
2022-11-05T11:52:35.443Z,96043.66
2022-11-05T11:55:28.272Z,96047.53
2022-11-05T11:58:08.045Z,96052.09
2022-11-05T12:00:41.453Z,96045.75
2022-11-05T12:03:34.874Z,96047.09
2022-11-05T12:06:26.830Z,96049.41
2022-11-05T12:09:22.729Z,96044.41
2022-11-05T12:11:54.878Z,96044.69
2022-11-05T12:14:46.196Z,96035.66
2022-11-05T12:17:37.599Z,96033.06
2022-11-05T12:20:16.121Z,96027.75
2022-11-05T12:23:18.253Z,96025.69
2022-11-05T12:26:05.668Z,96022.81
2022-11-05T12:29:16.571Z,96023.00
2022-11-05T12:31:43.930Z,96023.88
2022-11-05T12:34:31.652Z,96021.16
2022-11-05T12:36:58.199Z,96026.63
2022-11-05T12:39:46.871Z,96024.56
2022-11-05T12:42:25.664Z,96017.81
2022-11-05T12:45:12.774Z,96016.44
2022-11-05T12:48:26.849Z,96022.63
2022-11-05T12:51:02.769Z,96029.97
2022-11-05T12:53:40.024Z,96025.09
2022-11-05T12:56:21.274Z,96026.56
2022-11-05T12:58:55.093Z,96037.63
2022-11-05T13:01:31.326Z,96032.34
2022-11-05T13:04:01.616Z,96028.06
2022-11-05T13:06:39.834Z,96026.38
2022-11-05T13:09:17.913Z,96020.19
2022-11-05T13:11:48.282Z,96020.84
2022-11-05T13:14:23.098Z,96020.19
2022-11-05T13:16:53.873Z,96018.94
2022-11-05T13:19:29.729Z,96018.56
2022-11-05T13:22:34.574Z,96012.97
2022-11-05T13:25:10.731Z,96013.03
2022-11-05T13:28:15.043Z,96006.94
2022-11-05T13:30:48.837Z,95994.53
2022-11-05T13:33:23.754Z,95994.44
2022-11-05T13:36:18.058Z,95992.09
2022-11-05T13:39:01.340Z,95983.53
2022-11-05T13:41:36.281Z,95977.63
2022-11-05T13:44:05.769Z,95979.84
2022-11-05T13:46:43.461Z,95976.72
2022-11-05T13:49:21.795Z,95971.19
2022-11-05T13:51:53.011Z,95970.94
2022-11-05T13:54:48.887Z,95973.47
2022-11-05T13:57:48.632Z,95974.56
2022-11-05T14:01:03.699Z,95976.78
2022-11-05T14:03:30.509Z,95977.09
2022-11-05T14:06:05.347Z,95981.53
2022-11-05T14:08:43.827Z,95976.34
2022-11-05T14:11:37.534Z,95977.41
2022-11-05T14:14:17.607Z,95981.00
2022-11-05T14:17:10.233Z,95982.06
2022-11-05T14:19:59.700Z,95978.13
2022-11-05T14:22:32.048Z,95985.28
2022-11-05T14:25:00.150Z,95996.69
2022-11-05T14:27:29.756Z,95991.47
2022-11-05T14:29:56.383Z,95982.75
2022-11-05T14:32:25.745Z,95984.84
2022-11-05T14:34:55.249Z,95982.94
2022-11-05T14:37:31.173Z,95984.25
2022-11-05T14:40:21.779Z,95976.91
2022-11-05T14:42:55.038Z,95975.41
2022-11-05T14:45:34.574Z,95974.81
2022-11-05T14:48:04.962Z,95981.69
2022-11-05T14:50:38.947Z,95966.84
2022-11-05T14:53:28.371Z,95965.53
2022-11-05T14:56:11.703Z,95961.25
2022-11-05T14:58:40.669Z,95952.97
2022-11-05T15:01:29.026Z,95967.34
2022-11-05T15:04:26.505Z,95965.13
2022-11-05T15:07:02.209Z,95978.56
2022-11-05T15:09:37.070Z,95963.69
2022-11-05T15:12:13.948Z,95972.91
2022-11-05T15:15:01.970Z,95966.72
2022-11-05T15:17:38.812Z,95961.25
2022-11-05T15:20:13.714Z,95957.50
2022-11-05T15:22:53.461Z,95960.78
2022-11-05T15:25:30.688Z,95966.00
2022-11-05T15:28:11.338Z,95967.06
2022-11-05T15:30:37.995Z,95963.53
2022-11-05T15:33:21.259Z,95964.94
2022-11-05T15:35:47.957Z,95967.41
2022-11-05T15:38:31.645Z,95964.75
2022-11-05T15:41:05.300Z,95975.75
2022-11-05T15:43:32.558Z,95981.50
2022-11-05T15:46:02.924Z,95977.25
2022-11-05T15:48:30.220Z,95979.69
2022-11-05T15:50:57.042Z,95986.84
2022-11-05T15:56:49.169Z,95983.06
2022-11-05T15:59:26.990Z,95979.81
2022-11-05T16:01:58.054Z,95982.84
2022-11-05T16:04:31.451Z,95978.78
2022-11-05T16:07:01.582Z,95982.13
2022-11-05T16:09:31.226Z,95986.16
2022-11-05T16:12:19.514Z,95989.19
2022-11-05T16:15:10.621Z,95983.22
2022-11-05T16:17:40.234Z,95991.41
2022-11-05T16:20:25.088Z,95994.44
2022-11-05T16:23:03.859Z,95990.38
2022-11-05T16:25:43.928Z,95992.28
2022-11-05T16:28:23.750Z,95986.03
2022-11-05T16:31:05.353Z,95990.16
2022-11-05T16:33:45.393Z,95992.06
2022-11-05T16:36:12.945Z,95988.22
2022-11-05T16:38:39.929Z,95992.00
2022-11-05T16:41:06.699Z,95998.56
2022-11-05T16:43:34.512Z,95997.53
2022-11-05T16:46:01.980Z,96002.97
2022-11-05T16:48:28.584Z,95990.66
2022-11-05T16:50:55.280Z,95989.03
2022-11-05T16:53:21.953Z,95996.13
2022-11-05T16:55:48.746Z,95986.59
2022-11-05T16:58:24.109Z,95991.47
2022-11-05T17:00:54.773Z,95994.19
2022-11-05T17:03:21.546Z,96001.06
2022-11-05T17:05:48.207Z,95997.81
2022-11-05T17:08:15.356Z,96005.19
2022-11-05T17:10:42.175Z,96004.66
2022-11-05T17:13:14.135Z,96002.00
2022-11-05T17:15:43.846Z,96002.31
2022-11-05T17:18:16.916Z,96002.59
2022-11-05T17:20:51.131Z,95998.81
2022-11-05T17:23:20.607Z,96001.63
2022-11-05T17:25:56.631Z,96001.13
2022-11-05T17:28:23.806Z,96008.22
2022-11-05T17:30:53.056Z,96007.66
2022-11-05T17:33:21.262Z,96007.59
2022-11-05T17:35:48.227Z,96008.19
2022-11-05T17:38:15.234Z,96014.75
2022-11-05T17:40:42.610Z,96012.81
2022-11-05T17:43:09.637Z,96019.59
2022-11-05T17:45:42.395Z,96022.56
2022-11-05T17:48:10.241Z,96020.66
2022-11-05T17:50:43.917Z,96014.09
2022-11-05T17:53:11.529Z,96022.28
2022-11-05T17:55:41.655Z,96026.03
2022-11-05T17:58:08.460Z,96023.31
2022-11-05T18:00:35.577Z,96023.31
2022-11-05T18:03:02.755Z,96023.06
2022-11-05T18:05:31.046Z,96019.84
2022-11-05T18:07:58.394Z,96018.56
2022-11-05T18:10:25.644Z,96010.66
2022-11-05T18:12:52.353Z,96015.59
2022-11-05T18:15:19.249Z,96014.31
2022-11-05T18:17:46.413Z,96009.16
2022-11-05T18:20:19.361Z,96006.94
2022-11-05T18:22:48.790Z,96000.69
2022-11-05T18:25:15.534Z,96005.84
2022-11-05T18:27:42.124Z,96006.13
2022-11-05T18:30:10.392Z,96006.66
2022-11-05T18:32:36.972Z,96016.47
2022-11-05T18:35:03.811Z,96003.41
2022-11-05T18:37:30.670Z,96006.94
2022-11-05T18:39:57.236Z,95998.47
2022-11-05T18:42:25.359Z,96002.81
2022-11-05T18:44:52.190Z,96000.09
2022-11-05T18:47:18.980Z,95990.53
2022-11-05T18:49:45.567Z,95994.06
2022-11-05T18:52:12.229Z,95984.78
2022-11-05T18:54:39.198Z,95989.41
2022-11-05T18:57:06.006Z,95991.34
2022-11-05T18:59:38.228Z,95976.66
2022-11-05T19:02:07.641Z,95975.03
2022-11-05T19:04:37.338Z,95979.69
2022-11-05T19:07:05.875Z,95975.03
2022-11-05T19:09:37.168Z,95966.88
2022-11-05T19:12:05.075Z,95969.59
2022-11-05T19:14:31.867Z,95972.03
2022-11-05T19:16:59.471Z,95965.25
2022-11-05T19:19:26.997Z,95955.16
2022-11-05T19:21:53.611Z,95969.81
2022-11-05T19:24:20.504Z,95971.44
2022-11-05T19:26:47.551Z,95969.53
2022-11-05T19:29:14.236Z,95957.75
2022-11-05T19:31:40.843Z,95949.03
2022-11-05T19:34:07.599Z,95957.22
2022-11-05T19:36:34.291Z,95964.03
2022-11-05T19:39:06.449Z,95960.47
2022-11-05T19:41:33.372Z,95958.84
2022-11-05T19:44:01.756Z,95966.19
2022-11-05T19:46:30.139Z,95967.81
2022-11-05T19:48:57.041Z,95972.16
2022-11-05T19:51:25.959Z,95972.16
2022-11-05T19:53:53.619Z,95984.69
2022-11-05T19:56:23.492Z,95980.84
2022-11-05T19:58:50.723Z,95987.13
2022-11-05T20:01:18.906Z,95987.69
2022-11-05T20:03:46.391Z,95989.31
2022-11-05T20:06:16.073Z,95985.50
2022-11-05T20:09:07.113Z,95987.91
2022-11-05T20:11:31.556Z,95998.03
2022-11-05T20:13:58.110Z,95990.94
2022-11-05T20:16:28.286Z,95972.66
2022-11-05T20:18:55.440Z,95979.22
2022-11-05T20:21:22.002Z,95983.88
2022-11-05T20:23:48.961Z,95978.41
2022-11-05T20:26:16.159Z,95980.31
2022-11-05T20:28:43.784Z,95986.59
2022-11-05T20:31:14.077Z,95989.84
2022-11-05T20:33:41.208Z,95984.09
2022-11-05T20:36:12.313Z,95982.97
2022-11-05T20:38:39.208Z,95987.34
2022-11-05T20:41:10.975Z,95992.50
2022-11-05T20:43:40.816Z,96001.50
2022-11-05T20:46:09.044Z,96000.59
2022-11-05T20:48:35.714Z,96001.19
2022-11-05T20:51:11.071Z,96005.53
2022-11-05T20:53:38.628Z,96009.66
2022-11-05T20:56:08.638Z,96002.31
2022-11-05T20:58:37.112Z,96015.63
2022-11-05T21:01:05.167Z,96009.38
2022-11-05T21:03:32.033Z,96003.69
2022-11-05T21:06:00.194Z,96016.22
2022-11-05T21:08:28.036Z,96006.94
2022-11-05T21:10:55.540Z,96014.59
2022-11-05T21:13:23.085Z,96002.06
2022-11-05T21:15:55.619Z,96014.31
2022-11-05T21:18:25.106Z,96006.44
2022-11-05T21:20:51.791Z,96009.38
2022-11-05T21:23:19.327Z,96010.78
2022-11-05T21:25:46.863Z,96019.03
2022-11-05T21:28:15.025Z,96020.06
2022-11-05T21:30:45.574Z,96027.13
2022-11-05T21:33:13.739Z,96018.66
2022-11-05T21:35:44.078Z,96023.00
2022-11-05T21:38:12.469Z,96024.34
2022-11-05T21:40:39.674Z,96022.50
2022-11-05T21:43:07.278Z,96021.16
2022-11-05T21:45:34.043Z,96005.38
2022-11-05T21:48:00.845Z,96008.63
2022-11-05T21:50:46.015Z,96007.53
2022-11-05T21:53:35.285Z,96000.16
2022-11-05T21:56:36.122Z,96004.56
2022-11-05T21:59:21.830Z,95999.63
2022-11-05T22:01:48.656Z,96002.44
2022-11-05T22:04:16.166Z,95991.75
2022-11-05T22:06:42.866Z,95988.28
2022-11-05T22:09:09.437Z,95977.19
2022-11-05T22:11:38.097Z,95964.72
2022-11-05T22:14:04.740Z,95967.53
2022-11-05T22:16:31.320Z,95961.84
2022-11-05T22:18:58.812Z,95958.31
2022-11-05T22:21:25.358Z,95955.56
2022-11-05T22:23:53.019Z,95960.22
2022-11-05T22:26:19.987Z,95958.88
2022-11-05T22:28:46.600Z,95968.69
2022-11-05T22:31:14.267Z,95961.03
2022-11-05T22:33:41.223Z,95971.88
2022-11-05T22:36:08.297Z,95958.75
2022-11-05T22:38:34.978Z,95971.00
2022-11-05T22:41:14.794Z,95968.50
2022-11-05T22:43:41.508Z,95947.19
2022-11-05T22:46:10.624Z,95945.34
2022-11-05T22:48:38.708Z,95957.34
2022-11-05T22:51:08.036Z,95949.41
2022-11-05T22:53:35.589Z,95957.06
2022-11-05T22:56:04.066Z,95942.34
2022-11-05T22:58:30.761Z,95948.81
2022-11-05T23:00:57.845Z,95953.94
2022-11-05T23:03:26.159Z,95952.84
2022-11-05T23:06:29.834Z,95941.38
2022-11-05T23:09:14.945Z,95948.75
2022-11-05T23:11:44.130Z,95940.34
2022-11-05T23:14:13.225Z,95933.50
2022-11-05T23:16:58.933Z,95916.91
2022-11-05T23:19:44.460Z,95918.31
2022-11-05T23:22:49.254Z,95926.78
2022-11-05T23:25:23.459Z,95913.16
2022-11-05T23:27:54.266Z,95911.91
2022-11-05T23:30:24.116Z,95912.56
2022-11-05T23:32:51.620Z,95909.31
2022-11-05T23:35:38.694Z,95914.47
2022-11-05T23:38:24.129Z,95911.16
2022-11-05T23:41:09.399Z,95913.59
2022-11-05T23:43:54.521Z,95925.31
2022-11-05T23:46:39.589Z,95919.03
2022-11-05T23:49:06.585Z,95909.75
2022-11-05T23:51:33.241Z,95904.81
2022-11-05T23:53:59.790Z,95919.56
2022-11-05T23:56:26.719Z,95915.00
2022-11-05T23:58:53.262Z,95912.25
